PWSweather.com
Personal Weather Stations
Station Observations
SPARKSRC
St. Petersburg, FL 33716

St. Petersburg, FL 33716

Lat: 27.876101, Lon: -82.657194

Elevation: 13

Station Type: Zephyr PWS-1000TD

Latest ConditionsUpdated 5:20:02 AM EDT Thursday, Oct 23, 2014
Currently Today's Max Today's Min Today's Average
Temperature 66.4°F19.1°C 71.6°F22.0°C 66.4°F19.1°C 68.5°F20.3°C
Dew Point 61.4°F16.3°C 68.0°F20.0°C 61.4°F16.3°C 64.7°F18.2°C
Winds 9.8 mph NE15.8 kmh NE 14.5 mph NE23.3 kmh NE - 10.2 mph 16.4 kmh
Wind Gusts 18.3 mph29.5 kmh 22.8 mph36.7 kmh - -
Humidity 84% 91% 83% 88%
Pressure 29.91 in1012.9 mb 29.93 in1013.5 mb 29.91 in1012.9 mb -
Hour Temp Dew Point Humidity Winds Wind Gusts Pressure Precip Precip Rate Daily Precip Total
05:20 AM 66.4°F19.1°C 61.4°F16.3°C 84% 9.8 mph NE15.8 kmh NE 18.3 mph29.5 kmh 29.91 in1012.9 mb 0.00 in0.0 mm 0.00 in/hr0.0 mm/hr 0.00 in0.0 mm
05:15 AM 66.6°F19.2°C 61.6°F16.4°C 84% 10.7 mph NE17.2 kmh NE 18.3 mph29.5 kmh 29.91 in1012.9 mb 0.00 in0.0 mm 0.00 in/hr0.0 mm/hr 0.00 in0.0 mm
05:10 AM 66.6°F19.2°C 61.9°F16.6°C 85% 9.8 mph NE15.8 kmh NE 18.3 mph29.5 kmh 29.91 in1012.9 mb 0.00 in0.0 mm 0.00 in/hr0.0 mm/hr 0.00 in0.0 mm
05:05 AM 66.7°F19.3°C 62.1°F16.7°C 85% 11.4 mph NE18.3 kmh NE 19.0 mph30.6 kmh 29.91 in1012.9 mb 0.00 in0.0 mm 0.00 in/hr0.0 mm/hr 0.00 in0.0 mm
05:00 AM 66.7°F19.3°C 62.1°F16.7°C 85% 9.8 mph NE15.8 kmh NE 19.0 mph30.6 kmh 29.91 in1012.9 mb 0.00 in0.0 mm 0.00 in/hr0.0 mm/hr 0.00 in0.0 mm
04:55 AM 66.9°F19.4°C 62.0°F16.7°C 84% 9.8 mph NE15.8 kmh NE 19.0 mph30.6 kmh 29.91 in1012.9 mb 0.00 in0.0 mm 0.00 in/hr0.0 mm/hr 0.00 in0.0 mm
04:50 AM 67.1°F19.5°C 62.1°F16.7°C 84% 9.2 mph NE14.8 kmh NE 19.0 mph30.6 kmh 29.91 in1012.9 mb 0.00 in0.0 mm 0.00 in/hr0.0 mm/hr 0.00 in0.0 mm
04:45 AM 67.1°F19.5°C 61.8°F16.6°C 83% 7.6 mph NE12.2 kmh NE 19.7 mph31.7 kmh 29.91 in1012.9 mb 0.00 in0.0 mm 0.00 in/hr0.0 mm/hr 0.00 in0.0 mm
04:40 AM 67.1°F19.5°C 61.8°F16.6°C 83% 11.4 mph NE18.3 kmh NE 19.7 mph31.7 kmh 29.91 in1012.9 mb 0.00 in0.0 mm 0.00 in/hr0.0 mm/hr 0.00 in0.0 mm
04:35 AM 67.1°F19.5°C 62.1°F16.7°C 84% 9.8 mph NNE15.8 kmh NNE 19.7 mph31.7 kmh 29.91 in1012.9 mb 0.00 in0.0 mm 0.00 in/hr0.0 mm/hr 0.00 in0.0 mm
04:30 AM 67.1°F19.5°C 61.8°F16.6°C 83% 12.1 mph NE19.5 kmh NE 19.7 mph31.7 kmh 29.91 in1012.9 mb 0.00 in0.0 mm 0.00 in/hr0.0 mm/hr 0.00 in0.0 mm
04:25 AM 67.1°F19.5°C 61.8°F16.6°C 83% 13.6 mph NE21.9 kmh NE 19.7 mph31.7 kmh 29.91 in1012.9 mb 0.00 in0.0 mm 0.00 in/hr0.0 mm/hr 0.00 in0.0 mm
04:20 AM 67.3°F19.6°C 62.0°F16.7°C 83% 9.2 mph NE14.8 kmh NE 17.4 mph28.0 kmh 29.91 in1012.9 mb 0.00 in0.0 mm 0.00 in/hr0.0 mm/hr 0.00 in0.0 mm
04:15 AM 67.3°F19.6°C 62.0°F16.7°C 83% 13.6 mph NE21.9 kmh NE 19.7 mph31.7 kmh 29.91 in1012.9 mb 0.00 in0.0 mm 0.00 in/hr0.0 mm/hr 0.00 in0.0 mm
04:10 AM 67.5°F19.7°C 62.1°F16.7°C 83% 10.7 mph NE17.2 kmh NE 19.7 mph31.7 kmh 29.91 in1012.9 mb 0.00 in0.0 mm 0.00 in/hr0.0 mm/hr 0.00 in0.0 mm
04:05 AM 67.5°F19.7°C 62.1°F16.7°C 83% 9.2 mph NE14.8 kmh NE 22.1 mph35.6 kmh 29.92 in1013.2 mb 0.00 in0.0 mm 0.00 in/hr0.0 mm/hr 0.00 in0.0 mm
04:00 AM 67.5°F19.7°C 62.1°F16.7°C 83% 12.1 mph NE19.5 kmh NE 22.1 mph35.6 kmh 29.91 in1012.9 mb 0.00 in0.0 mm 0.00 in/hr0.0 mm/hr 0.00 in0.0 mm
03:55 AM 67.5°F19.7°C 62.5°F16.9°C 84% 11.4 mph NE18.3 kmh NE 20.6 mph33.2 kmh 29.91 in1012.9 mb 0.00 in0.0 mm 0.00 in/hr0.0 mm/hr 0.00 in0.0 mm
03:50 AM 67.5°F19.7°C 62.8°F17.1°C 85% 11.4 mph NE18.3 kmh NE 18.3 mph29.5 kmh 29.91 in1012.9 mb 0.00 in0.0 mm 0.00 in/hr0.0 mm/hr 0.00 in0.0 mm
03:45 AM 67.5°F19.7°C 62.8°F17.1°C 85% 11.4 mph NE18.3 kmh NE 19.0 mph30.6 kmh 29.91 in1012.9 mb 0.00 in0.0 mm 0.00 in/hr0.0 mm/hr 0.00 in0.0 mm
03:40 AM 67.5°F19.7°C 63.2°F17.3°C 86% 10.7 mph NE17.2 kmh NE 19.0 mph30.6 kmh 29.91 in1012.9 mb 0.00 in0.0 mm 0.00 in/hr0.0 mm/hr 0.00 in0.0 mm
03:35 AM 67.6°F19.8°C 63.3°F17.4°C 86% 8.3 mph NE13.4 kmh NE 19.7 mph31.7 kmh 29.91 in1012.9 mb 0.00 in0.0 mm 0.00 in/hr0.0 mm/hr 0.00 in0.0 mm
03:30 AM 67.6°F19.8°C 63.3°F17.4°C 86% 12.1 mph NE19.5 kmh NE 19.7 mph31.7 kmh 29.91 in1012.9 mb 0.00 in0.0 mm 0.00 in/hr0.0 mm/hr 0.00 in0.0 mm
03:25 AM 67.8°F19.9°C 63.8°F17.7°C 87% 9.8 mph NE15.8 kmh NE 19.0 mph30.6 kmh 29.91 in1012.9 mb 0.00 in0.0 mm 0.00 in/hr0.0 mm/hr 0.00 in0.0 mm
03:20 AM 67.8°F19.9°C 63.8°F17.7°C 87% 9.8 mph NE15.8 kmh NE 20.6 mph33.2 kmh 29.92 in1013.2 mb 0.00 in0.0 mm 0.00 in/hr0.0 mm/hr 0.00 in0.0 mm
03:15 AM 67.5°F19.7°C 63.8°F17.7°C 88% 9.8 mph NE15.8 kmh NE 20.6 mph33.2 kmh 29.92 in1013.2 mb 0.00 in0.0 mm 0.00 in/hr0.0 mm/hr 0.00 in0.0 mm
03:10 AM 68.0°F20.0°C 64.0°F17.8°C 87% 13.6 mph NE21.9 kmh NE 22.8 mph36.7 kmh 29.93 in1013.5 mb 0.00 in0.0 mm 0.00 in/hr0.0 mm/hr 0.00 in0.0 mm
03:05 AM 68.0°F20.0°C 64.0°F17.8°C 87% 11.4 mph NE18.3 kmh NE 22.8 mph36.7 kmh 29.93 in1013.5 mb 0.00 in0.0 mm 0.00 in/hr0.0 mm/hr 0.00 in0.0 mm
03:00 AM 68.2°F20.1°C 64.5°F18.1°C 88% 10.7 mph NE17.2 kmh NE 18.3 mph29.5 kmh 29.92 in1013.2 mb 0.00 in0.0 mm 0.00 in/hr0.0 mm/hr 0.00 in0.0 mm
02:55 AM 68.4°F20.2°C 65.0°F18.3°C 89% 9.2 mph NE14.8 kmh NE 17.4 mph28.0 kmh 29.92 in1013.2 mb 0.00 in0.0 mm 0.00 in/hr0.0 mm/hr 0.00 in0.0 mm
02:50 AM 68.4°F20.2°C 65.0°F18.3°C 89% 10.7 mph NE17.2 kmh NE 19.0 mph30.6 kmh 29.93 in1013.5 mb 0.00 in0.0 mm 0.00 in/hr0.0 mm/hr 0.00 in0.0 mm
02:45 AM 68.4°F20.2°C 64.7°F18.2°C 88% 9.8 mph NE15.8 kmh NE 20.6 mph33.2 kmh 29.93 in1013.5 mb 0.00 in0.0 mm 0.00 in/hr0.0 mm/hr 0.00 in0.0 mm
02:40 AM 68.2°F20.1°C 64.8°F18.2°C 89% 14.5 mph NE23.3 kmh NE 20.6 mph33.2 kmh 29.93 in1013.5 mb 0.00 in0.0 mm 0.00 in/hr0.0 mm/hr 0.00 in0.0 mm
02:35 AM 68.4°F20.2°C 65.3°F18.5°C 90% 11.4 mph NE18.3 kmh NE 19.0 mph30.6 kmh 29.93 in1013.5 mb 0.00 in0.0 mm 0.00 in/hr0.0 mm/hr 0.00 in0.0 mm
02:30 AM 68.4°F20.2°C 65.3°F18.5°C 90% 11.4 mph NE18.3 kmh NE 20.6 mph33.2 kmh 29.93 in1013.5 mb 0.00 in0.0 mm 0.00 in/hr0.0 mm/hr 0.00 in0.0 mm
02:25 AM 68.5°F20.3°C 65.5°F18.6°C 90% 12.1 mph NE19.5 kmh NE 20.6 mph33.2 kmh 29.93 in1013.5 mb 0.00 in0.0 mm 0.00 in/hr0.0 mm/hr 0.00 in0.0 mm
02:20 AM 68.5°F20.3°C 65.8°F18.8°C 91% 12.1 mph NE19.5 kmh NE 19.0 mph30.6 kmh 29.93 in1013.5 mb 0.00 in0.0 mm 0.00 in/hr0.0 mm/hr 0.00 in0.0 mm
02:15 AM 68.7°F20.4°C 65.7°F18.7°C 90% 9.8 mph NE15.8 kmh NE 19.0 mph30.6 kmh 29.93 in1013.5 mb 0.00 in0.0 mm 0.00 in/hr0.0 mm/hr 0.00 in0.0 mm
02:10 AM 68.7°F20.4°C 65.7°F18.7°C 90% 10.7 mph NE17.2 kmh NE 19.0 mph30.6 kmh 29.93 in1013.5 mb 0.00 in0.0 mm 0.00 in/hr0.0 mm/hr 0.00 in0.0 mm
02:05 AM 68.9°F20.5°C 66.2°F19.0°C 91% 9.2 mph NE14.8 kmh NE 18.3 mph29.5 kmh 29.93 in1013.5 mb 0.00 in0.0 mm 0.00 in/hr0.0 mm/hr 0.00 in0.0 mm
02:00 AM 68.7°F20.4°C 65.7°F18.7°C 90% 12.1 mph NE19.5 kmh NE 18.3 mph29.5 kmh 29.93 in1013.5 mb 0.00 in0.0 mm 0.00 in/hr0.0 mm/hr 0.00 in0.0 mm
01:55 AM 68.9°F20.5°C 66.2°F19.0°C 91% 7.6 mph NE12.2 kmh NE 15.9 mph25.6 kmh 29.93 in1013.5 mb 0.00 in0.0 mm 0.00 in/hr0.0 mm/hr 0.00 in0.0 mm
01:50 AM 68.9°F20.5°C 65.9°F18.8°C 90% 10.7 mph NE17.2 kmh NE 19.0 mph30.6 kmh 29.93 in1013.5 mb 0.00 in0.0 mm 0.00 in/hr0.0 mm/hr 0.00 in0.0 mm
01:45 AM 68.9°F20.5°C 66.2°F19.0°C 91% 9.2 mph NE14.8 kmh NE 19.0 mph30.6 kmh 29.93 in1013.5 mb 0.00 in0.0 mm 0.00 in/hr0.0 mm/hr 0.00 in0.0 mm
01:40 AM 69.1°F20.6°C 66.4°F19.1°C 91% 8.3 mph NE13.4 kmh NE 17.4 mph28.0 kmh 29.93 in1013.5 mb 0.00 in0.0 mm 0.00 in/hr0.0 mm/hr 0.00 in0.0 mm
01:35 AM 69.1°F20.6°C 66.4°F19.1°C 91% 6.9 mph NE11.1 kmh NE 15.9 mph25.6 kmh 29.93 in1013.5 mb 0.00 in0.0 mm 0.00 in/hr0.0 mm/hr 0.00 in0.0 mm
01:30 AM 69.3°F20.7°C 66.6°F19.2°C 91% 8.3 mph NE13.4 kmh NE 15.2 mph24.5 kmh 29.92 in1013.2 mb 0.00 in0.0 mm 0.00 in/hr0.0 mm/hr 0.00 in0.0 mm
01:25 AM 69.3°F20.7°C 66.2°F19.0°C 90% 10.7 mph NE17.2 kmh NE 15.9 mph25.6 kmh 29.93 in1013.5 mb 0.00 in0.0 mm 0.00 in/hr0.0 mm/hr 0.00 in0.0 mm
01:20 AM 69.4°F20.8°C 66.4°F19.1°C 90% 11.4 mph NE18.3 kmh NE 19.0 mph30.6 kmh 29.93 in1013.5 mb 0.00 in0.0 mm 0.00 in/hr0.0 mm/hr 0.00 in0.0 mm
01:15 AM 69.6°F20.9°C 66.6°F19.2°C 90% 8.3 mph NE13.4 kmh NE 19.0 mph30.6 kmh 29.93 in1013.5 mb 0.00 in0.0 mm 0.00 in/hr0.0 mm/hr 0.00 in0.0 mm
01:10 AM 70.9°F21.6°C 67.8°F19.9°C 90% 7.6 mph NE12.2 kmh NE 18.3 mph29.5 kmh 29.93 in1013.5 mb 0.00 in0.0 mm 0.00 in/hr0.0 mm/hr 0.00 in0.0 mm
01:05 AM 69.8°F21.0°C 66.8°F19.3°C 90% 9.2 mph NE14.8 kmh NE 18.3 mph29.5 kmh 29.93 in1013.5 mb 0.00 in0.0 mm 0.00 in/hr0.0 mm/hr 0.00 in0.0 mm
01:00 AM 69.8°F21.0°C 66.8°F19.3°C 90% 12.1 mph NE19.5 kmh NE 16.8 mph27.0 kmh 29.93 in1013.5 mb 0.00 in0.0 mm 0.00 in/hr0.0 mm/hr 0.00 in0.0 mm
12:55 AM 69.8°F21.0°C 66.8°F19.3°C 90% 8.3 mph NE13.4 kmh NE 16.8 mph27.0 kmh 29.93 in1013.5 mb 0.00 in0.0 mm 0.00 in/hr0.0 mm/hr 0.00 in0.0 mm
12:50 AM 70.0°F21.1°C 66.9°F19.4°C 90% 10.7 mph NE17.2 kmh NE 16.8 mph27.0 kmh 29.93 in1013.5 mb 0.00 in0.0 mm 0.00 in/hr0.0 mm/hr 0.00 in0.0 mm
12:45 AM 70.0°F21.1°C 67.3°F19.6°C 91% 10.7 mph NE17.2 kmh NE 15.9 mph25.6 kmh 29.93 in1013.5 mb 0.00 in0.0 mm 0.00 in/hr0.0 mm/hr 0.00 in0.0 mm
12:40 AM 70.2°F21.2°C 67.4°F19.7°C 91% 10.7 mph NE17.2 kmh NE 15.9 mph25.6 kmh 29.93 in1013.5 mb 0.00 in0.0 mm 0.00 in/hr0.0 mm/hr 0.00 in0.0 mm
12:35 AM 70.3°F21.3°C 67.3°F19.6°C 90% 8.3 mph NE13.4 kmh NE 14.5 mph23.3 kmh 29.93 in1013.5 mb 0.00 in0.0 mm 0.00 in/hr0.0 mm/hr 0.00 in0.0 mm
12:30 AM 70.5°F21.4°C 67.8°F19.9°C 91% 6.9 mph NE11.1 kmh NE 17.4 mph28.0 kmh 29.93 in1013.5 mb 0.00 in0.0 mm 0.00 in/hr0.0 mm/hr 0.00 in0.0 mm
12:25 AM 70.7°F21.5°C 68.0°F20.0°C 91% 8.3 mph E13.4 kmh E 18.3 mph29.5 kmh 29.93 in1013.5 mb 0.00 in0.0 mm 0.00 in/hr0.0 mm/hr 0.00 in0.0 mm
12:20 AM 70.9°F21.6°C 67.8°F19.9°C 90% 7.6 mph ENE12.2 kmh ENE 19.0 mph30.6 kmh 29.93 in1013.5 mb 0.00 in0.0 mm 0.00 in/hr0.0 mm/hr 0.00 in0.0 mm
12:15 AM 71.1°F21.7°C 68.0°F20.0°C 90% 9.8 mph NE15.8 kmh NE 19.0 mph30.6 kmh 29.93 in1013.5 mb 0.00 in0.0 mm 0.00 in/hr0.0 mm/hr 0.00 in0.0 mm
12:10 AM 71.2°F21.8°C 67.9°F19.9°C 89% 8.3 mph NE13.4 kmh NE 16.8 mph27.0 kmh 29.93 in1013.5 mb 0.00 in0.0 mm 0.00 in/hr0.0 mm/hr 0.00 in0.0 mm
12:05 AM 71.4°F21.9°C 68.0°F20.0°C 89% 11.4 mph NE18.3 kmh NE 19.0 mph30.6 kmh 29.93 in1013.5 mb 0.00 in0.0 mm 0.00 in/hr0.0 mm/hr 0.00 in0.0 mm
12:00 AM 71.6°F22.0°C 67.9°F19.9°C 88% 6.9 mph NE11.1 kmh NE 21.3 mph34.3 kmh 29.93 in1013.5 mb 0.00 in0.0 mm 0.00 in/hr0.0 mm/hr 0.00 in0.0 mm